Time;durP1;ratioP1;P1;durP2;ratioP2;P2;SDS_P1;SDS_P2;PMS_P1;PMS_P2;Temp;Humidity;BMP_temperature;BMP_pressure;BME280_temperature;BME280_humidity;BME280_pressure;Samples;Min_cycle;Max_cycle;Signal;HPM_P1;HPM_P2
2022/05/17 00:01:48;;;;;;;6.80;5.20;;;;;;;14.75;40.27;100677.02;108653;1271;22374;-75
2022/05/17 00:04:21;;;;;;;7.20;4.20;;;;;;;14.70;40.31;100675.38;108693;1270;22765;-76
2022/05/17 00:06:53;;;;;;;9.30;5.20;;;;;;;14.67;40.38;100675.73;108723;1271;22392;-74
2022/05/17 00:09:22;;;;;;;10.60;4.60;;;;;;;14.65;40.41;100671.58;108668;1271;22085;-77
2022/05/17 00:11:51;;;;;;;8.20;4.80;;;;;;;14.64;40.56;100671.65;108724;1271;22107;-76
2022/05/17 00:14:20;;;;;;;9.90;4.80;;;;;;;14.64;40.53;100669.73;108662;1270;22218;-77
2022/05/17 00:16:50;;;;;;;8.40;4.90;;;;;;;14.61;40.56;100671.83;108764;1267;21975;-77
2022/05/17 00:19:21;;;;;;;10.60;5.10;;;;;;;14.59;40.68;100677.54;109203;1266;22049;-77
2022/05/17 00:21:51;;;;;;;8.90;5.50;;;;;;;14.57;40.76;100679.42;108996;1267;23615;-77
2022/05/17 00:24:23;;;;;;;9.50;5.10;;;;;;;14.54;40.90;100676.62;109103;1266;23691;-76
2022/05/17 00:26:53;;;;;;;8.10;4.90;;;;;;;14.51;40.95;100675.91;109085;1267;22062;-76
2022/05/17 00:29:22;;;;;;;9.10;5.40;;;;;;;14.48;40.98;100674.67;108730;1270;23669;-75
2022/05/17 00:31:53;;;;;;;10.10;6.30;;;;;;;14.45;41.09;100679.78;108782;1270;23058;-76
2022/05/17 00:34:24;;;;;;;10.30;5.30;;;;;;;14.43;41.07;100682.69;108673;1273;21982;-75
2022/05/17 00:36:54;;;;;;;8.00;5.90;;;;;;;14.41;41.15;100685.00;108691;1270;21993;-76
2022/05/17 00:39:23;;;;;;;11.60;5.30;;;;;;;14.38;41.12;100685.73;108664;1271;22774;-75
2022/05/17 00:41:52;;;;;;;8.00;5.00;;;;;;;14.34;41.21;100685.68;108317;1275;23701;-75
2022/05/17 00:47:27;;;;;;;9.60;5.80;;;;;;;14.26;41.37;100669.44;108083;1276;22789;-76
2022/05/17 00:50:17;;;;;;;10.40;6.80;;;;;;;14.21;41.60;100662.36;108279;1276;22110;-76
2022/05/17 00:52:56;;;;;;;7.60;6.30;;;;;;;14.12;41.74;100660.47;108022;1281;22032;-76
2022/05/17 00:55:34;;;;;;;11.50;7.10;;;;;;;14.07;41.95;100662.71;107912;1281;23072;-76
2022/05/17 00:58:23;;;;;;;15.20;8.50;;;;;;;14.03;42.04;100661.03;107811;1282;22024;-76
2022/05/17 01:01:08;;;;;;;11.80;8.70;;;;;;;14.00;42.19;100661.29;108225;1276;22095;-75
2022/05/17 01:03:52;;;;;;;10.30;7.90;;;;;;;13.97;42.41;100655.66;108646;1273;21994;-74
2022/05/17 01:06:30;;;;;;;12.90;7.30;;;;;;;13.91;42.42;100652.06;108679;1273;22091;-76
2022/05/17 01:08:59;;;;;;;10.00;7.10;;;;;;;13.82;42.50;100645.85;108428;1276;21985;-75
2022/05/17 01:11:31;;;;;;;8.90;7.00;;;;;;;13.74;42.69;100642.61;108562;1270;23105;-76
2022/05/17 01:16:51;;;;;;;10.50;7.20;;;;;;;13.63;43.25;100649.98;108382;1276;21982;-76
2022/05/17 01:19:21;;;;;;;8.40;7.00;;;;;;;13.62;43.38;100644.98;108344;1276;23061;-75
2022/05/17 01:21:51;;;;;;;10.80;7.00;;;;;;;13.60;43.52;100647.59;108342;1276;23736;-76
2022/05/17 01:24:20;;;;;;;9.70;7.60;;;;;;;13.55;43.64;100642.66;108396;1276;22502;-75
2022/05/17 01:27:00;;;;;;;9.70;6.50;;;;;;;13.51;43.83;100634.10;108456;1273;22058;-75
2022/05/17 01:29:37;;;;;;;11.00;6.20;;;;;;;13.46;43.92;100632.25;108782;1273;23077;-75
2022/05/17 01:32:09;;;;;;;11.90;6.50;;;;;;;13.41;44.03;100631.33;108886;1266;23696;-76
2022/05/17 01:34:39;;;;;;;6.80;5.70;;;;;;;13.39;43.99;100628.61;109232;1266;22305;-76
2022/05/17 01:37:09;;;;;;;9.00;6.30;;;;;;;13.34;43.99;100626.89;109143;1267;21974;-76
2022/05/17 01:39:39;;;;;;;8.50;6.50;;;;;;;13.30;44.18;100623.54;109136;1267;22029;-76
2022/05/17 01:42:10;;;;;;;13.00;7.10;;;;;;;13.25;44.17;100621.57;108652;1273;23699;-76
2022/05/17 01:44:43;;;;;;;8.50;6.60;;;;;;;13.21;44.30;100618.84;108691;1273;21971;-75
2022/05/17 01:47:14;;;;;;;11.90;6.40;;;;;;;13.17;44.37;100614.30;108648;1273;23079;-74
2022/05/17 01:49:46;;;;;;;8.10;5.90;;;;;;;13.14;44.32;100618.55;108465;1274;22005;-74
2022/05/17 01:52:15;;;;;;;7.00;5.50;;;;;;;13.10;44.52;100616.89;108610;1273;23887;-75
2022/05/17 01:54:44;;;;;;;11.90;7.00;;;;;;;13.08;44.68;100608.69;108635;1274;21978;-75
2022/05/17 01:57:13;;;;;;;8.40;6.60;;;;;;;13.10;44.82;100607.41;108459;1273;21996;-75
2022/05/17 01:59:42;;;;;;;9.30;6.80;;;;;;;13.10;44.82;100602.02;108794;1267;23709;-76
2022/05/17 02:02:14;;;;;;;7.60;6.30;;;;;;;13.08;44.75;100598.91;109133;1267;21965;-75
2022/05/17 02:04:44;;;;;;;11.50;6.10;;;;;;;13.05;44.84;100598.61;109060;1267;22011;-75
2022/05/17 02:07:13;;;;;;;10.30;5.40;;;;;;;12.99;44.89;100598.38;109021;1267;23667;-75
2022/05/17 02:09:44;;;;;;;9.40;6.80;;;;;;;13.00;45.13;100605.90;109140;1267;22084;-76
2022/05/17 02:12:13;;;;;;;7.50;6.60;;;;;;;13.01;45.19;100605.80;108968;1267;21973;-76
2022/05/17 02:14:43;;;;;;;10.40;7.20;;;;;;;13.02;45.26;100599.67;108901;1267;23612;-76
2022/05/17 02:17:13;;;;;;;13.00;7.40;;;;;;;13.01;45.13;100604.46;108857;1270;22054;-77
2022/05/17 02:19:42;;;;;;;9.10;6.90;;;;;;;13.02;45.26;100610.95;108890;1270;23089;-75
2022/05/17 02:22:11;;;;;;;9.00;7.30;;;;;;;13.02;45.32;100614.64;108799;1270;21983;-75
2022/05/17 02:24:40;;;;;;;10.30;7.60;;;;;;;13.03;45.55;100617.19;108761;1270;21990;-73
2022/05/17 02:27:09;;;;;;;10.90;8.50;;;;;;;13.05;45.75;100618.00;108693;1270;22303;-74
2022/05/17 02:29:38;;;;;;;11.40;8.50;;;;;;;13.07;45.80;100619.62;108864;1270;22461;-73
2022/05/17 02:32:08;;;;;;;11.80;8.90;;;;;;;13.08;45.68;100626.16;108798;1270;22295;-74
2022/05/17 02:34:37;;;;;;;12.00;9.10;;;;;;;13.10;45.54;100625.79;108782;1270;21982;-74
2022/05/17 02:37:06;;;;;;;13.80;9.50;;;;;;;13.11;45.59;100627.16;108756;1270;21996;-74
2022/05/17 02:39:36;;;;;;;13.40;10.20;;;;;;;13.12;45.70;100627.66;108721;1270;22030;-74
2022/05/17 02:42:05;;;;;;;19.80;12.20;;;;;;;13.11;45.64;100629.86;108716;1270;23663;-74
2022/05/17 02:44:35;;;;;;;18.00;11.70;;;;;;;13.12;45.58;100631.95;108730;1271;22474;-74
2022/05/17 02:47:06;;;;;;;19.00;11.80;;;;;;;13.13;45.47;100634.48;108539;1271;22052;-74
2022/05/17 02:49:35;;;;;;;15.10;11.40;;;;;;;13.12;45.34;100629.98;108683;1271;23069;-74
2022/05/17 02:52:04;;;;;;;13.20;11.60;;;;;;;13.08;45.23;100631.63;108699;1270;21980;-74
2022/05/17 02:54:34;;;;;;;13.20;10.80;;;;;;;13.07;45.30;100636.16;108663;1271;23115;-74
2022/05/17 02:57:04;;;;;;;20.40;12.50;;;;;;;13.09;45.35;100632.95;108689;1270;22030;-74
2022/05/17 02:59:34;;;;;;;15.50;9.90;;;;;;;13.09;45.25;100637.85;108722;1273;21997;-74
2022/05/17 03:02:07;;;;;;;10.90;8.40;;;;;;;13.09;45.03;100636.11;108651;1270;21983;-74
2022/05/17 03:04:36;;;;;;;10.00;7.40;;;;;;;13.09;45.09;100634.23;108719;1270;23048;-74
2022/05/17 03:07:05;;;;;;;10.00;7.20;;;;;;;13.10;45.13;100637.66;108908;1267;23818;-75
2022/05/17 03:09:34;;;;;;;13.40;7.20;;;;;;;13.11;45.03;100639.93;108999;1267;22170;-74
2022/05/17 03:12:05;;;;;;;11.30;6.10;;;;;;;13.12;45.02;100635.95;109142;1267;23745;-73
2022/05/17 03:14:34;;;;;;;10.90;6.40;;;;;;;13.11;44.87;100639.20;108933;1267;23065;-74
2022/05/17 03:17:15;;;;;;;12.20;6.70;;;;;;;13.13;44.94;100640.09;108622;1273;23689;-73
2022/05/17 03:19:45;;;;;;;11.90;6.00;;;;;;;13.15;44.98;100642.36;108636;1273;21996;-73
2022/05/17 03:22:14;;;;;;;11.80;5.70;;;;;;;13.14;44.92;100637.49;108655;1273;22452;-74
2022/05/17 03:24:43;;;;;;;8.90;6.60;;;;;;;13.14;45.01;100639.75;108588;1273;21985;-74
2022/05/17 03:27:32;;;;;;;8.30;6.00;;;;;;;13.17;45.09;100646.35;108777;1272;22023;-74
2022/05/17 03:30:02;;;;;;;11.30;7.40;;;;;;;13.19;45.07;100645.45;108348;1276;22039;-73
2022/05/17 03:32:32;;;;;;;10.60;5.40;;;;;;;13.22;45.08;100650.27;108204;1276;21994;-74
2022/05/17 03:35:02;;;;;;;6.30;4.90;;;;;;;13.26;45.14;100660.38;108474;1273;22140;-74
2022/05/17 03:37:31;;;;;;;9.60;5.20;;;;;;;13.28;45.04;100664.58;108752;1270;22088;-74
2022/05/17 03:40:00;;;;;;;6.80;5.30;;;;;;;13.29;44.91;100665.73;108768;1271;21987;-74
2022/05/17 03:42:31;;;;;;;14.90;6.50;;;;;;;13.31;45.02;100669.86;108337;1275;22012;-74
2022/05/17 03:45:00;;;;;;;14.00;6.20;;;;;;;13.34;45.08;100672.36;108419;1276;21999;-73
2022/05/17 03:47:29;;;;;;;8.60;4.40;;;;;;;13.38;45.06;100670.18;108477;1273;23124;-72
2022/05/17 03:49:59;;;;;;;5.90;4.10;;;;;;;13.39;44.99;100668.27;108480;1273;23611;-73
2022/05/17 03:52:31;;;;;;;12.70;4.60;;;;;;;13.39;45.07;100672.82;108687;1273;23694;-73
2022/05/17 03:55:11;;;;;;;5.60;3.70;;;;;;;13.43;45.24;100672.75;108691;1273;22003;-74
2022/05/17 03:57:41;;;;;;;8.00;4.50;;;;;;;13.45;45.16;100667.06;108648;1273;22094;-73
2022/05/17 04:00:11;;;;;;;7.70;4.20;;;;;;;13.48;45.19;100665.94;108562;1267;21976;-73
2022/05/17 04:02:41;;;;;;;6.30;4.10;;;;;;;13.49;45.19;100661.41;109196;1267;21986;-73
2022/05/17 04:05:11;;;;;;;15.00;12.50;;;;;;;13.48;45.12;100660.31;109023;1267;23021;-73
2022/05/17 04:07:40;;;;;;;9.80;4.90;;;;;;;13.52;45.41;100658.62;109195;1266;22451;-73
2022/05/17 04:10:15;;;;;;;6.40;3.60;;;;;;;13.55;45.27;100656.66;108935;1267;23060;-73
2022/05/17 04:12:45;;;;;;;8.30;4.10;;;;;;;13.54;45.25;100657.23;108885;1267;23113;-72
2022/05/17 04:15:23;;;;;;;6.00;4.10;;;;;;;13.57;45.39;100662.04;108981;1267;21974;-73
2022/05/17 04:17:56;;;;;;;7.00;4.20;;;;;;;13.62;45.44;100667.98;109150;1267;23052;-73
2022/05/17 04:20:26;;;;;;;9.60;4.30;;;;;;;13.68;45.46;100671.74;108956;1266;22053;-73
2022/05/17 04:22:58;;;;;;;9.00;4.60;;;;;;;13.74;45.24;100673.74;109175;1267;23774;-72
2022/05/17 04:25:30;;;;;;;7.50;4.80;;;;;;;13.76;45.24;100676.64;108979;1267;23718;-73
2022/05/17 04:27:59;;;;;;;11.40;4.90;;;;;;;13.78;45.37;100676.58;109051;1267;23705;-73
2022/05/17 04:30:29;;;;;;;7.10;3.80;;;;;;;13.83;45.47;100681.20;108932;1267;21976;-73
2022/05/17 04:33:01;;;;;;;8.90;3.60;;;;;;;13.88;45.32;100679.36;109081;1266;22203;-73
2022/05/17 04:35:30;;;;;;;5.80;4.10;;;;;;;13.89;45.18;100680.98;109088;1267;22762;-73
2022/05/17 04:38:00;;;;;;;6.90;4.30;;;;;;;13.90;45.27;100681.23;108865;1270;22754;-73
2022/05/17 04:40:32;;;;;;;7.80;3.80;;;;;;;13.94;45.36;100681.97;108768;1270;22038;-73
2022/05/17 04:43:03;;;;;;;6.60;4.20;;;;;;;14.00;45.45;100684.02;108803;1270;22056;-73
2022/05/17 04:45:32;;;;;;;6.30;3.90;;;;;;;14.08;45.44;100682.79;108643;1271;24371;-73
2022/05/17 04:48:05;;;;;;;11.90;5.20;;;;;;;14.16;45.28;100677.97;108751;1270;22005;-73
2022/05/17 04:50:34;;;;;;;18.40;4.70;;;;;;;14.19;45.19;100675.63;108785;1270;22938;-74
2022/05/17 04:53:06;;;;;;;11.10;4.70;;;;;;;14.24;45.22;100674.17;108780;1270;22876;-74
2022/05/17 04:55:38;;;;;;;7.70;3.90;;;;;;;14.25;45.18;100672.90;108671;1273;23621;-73
2022/05/17 04:58:13;;;;;;;7.80;4.50;;;;;;;14.28;45.11;100671.02;108865;1270;22447;-73
2022/05/17 05:00:42;;;;;;;8.60;4.60;;;;;;;14.32;45.31;100673.66;108849;1270;22002;-74
2022/05/17 05:03:11;;;;;;;5.10;3.50;;;;;;;14.39;45.39;100677.70;108919;1270;21973;-75
2022/05/17 05:05:41;;;;;;;9.10;5.60;;;;;;;14.45;45.21;100682.81;109129;1267;23101;-73
2022/05/17 05:08:10;;;;;;;8.10;5.00;;;;;;;14.46;45.08;100685.34;108671;1270;21984;-74
2022/05/17 05:10:42;;;;;;;9.70;4.40;;;;;;;14.45;45.05;100685.11;108471;1273;22037;-73
2022/05/17 05:13:20;;;;;;;8.60;4.60;;;;;;;14.46;45.16;100688.52;108718;1270;23712;-75
2022/05/17 05:15:50;;;;;;;12.60;5.30;;;;;;;14.48;45.23;100684.56;108725;1273;23082;-74
2022/05/17 05:18:19;;;;;;;12.90;4.70;;;;;;;14.47;45.31;100683.27;108531;1273;22003;-73
2022/05/17 05:20:48;;;;;;;9.50;5.10;;;;;;;14.50;45.34;100681.86;108739;1270;22167;-74
2022/05/17 05:23:18;;;;;;;9.50;4.80;;;;;;;14.51;45.41;100681.85;108797;1270;21996;-73
2022/05/17 05:25:47;;;;;;;10.40;4.60;;;;;;;14.50;45.37;100686.04;108417;1270;21998;-73
2022/05/17 05:28:16;;;;;;;6.70;3.70;;;;;;;14.52;45.52;100689.23;108820;1270;22048;-73
2022/05/17 05:30:45;;;;;;;7.10;4.60;;;;;;;14.57;45.71;100693.70;108653;1270;23117;-74
2022/05/17 05:33:16;;;;;;;11.60;4.60;;;;;;;14.60;45.47;100693.41;108709;1271;22002;-73
2022/05/17 05:35:45;;;;;;;7.00;4.40;;;;;;;14.62;45.61;100694.09;108690;1273;21983;-75
2022/05/17 05:38:19;;;;;;;7.80;4.80;;;;;;;14.67;45.69;100700.17;108736;1270;21998;-74
2022/05/17 05:40:55;;;;;;;6.00;4.40;;;;;;;14.73;45.66;100699.83;108353;1276;22067;-73
2022/05/17 05:43:25;;;;;;;6.80;4.60;;;;;;;14.78;45.40;100700.47;108436;1273;23734;-74
2022/05/17 05:45:54;;;;;;;10.10;4.90;;;;;;;14.82;45.49;100701.34;108786;1271;21983;-74
2022/05/17 05:48:24;;;;;;;9.00;5.10;;;;;;;14.91;45.59;100704.34;108667;1273;23647;-74
2022/05/17 05:50:53;;;;;;;6.10;4.50;;;;;;;15.06;45.63;100705.39;108750;1273;23129;-74
2022/05/17 05:53:27;;;;;;;7.30;4.40;;;;;;;15.17;45.37;100703.67;108709;1270;22772;-74
2022/05/17 05:56:02;;;;;;;5.90;4.10;;;;;;;15.24;45.09;100700.59;108783;1270;23076;-75
2022/05/17 05:58:38;;;;;;;9.60;4.60;;;;;;;15.29;44.88;100698.96;108350;1273;22096;-76
2022/05/17 06:01:07;;;;;;;9.00;5.10;;;;;;;15.32;44.90;100700.73;108559;1273;22511;-75
2022/05/17 06:03:39;;;;;;;13.80;5.70;;;;;;;15.39;45.28;100703.03;108531;1273;22386;-75
2022/05/17 06:06:09;;;;;;;8.70;6.50;;;;;;;15.51;45.31;100701.66;108517;1276;21996;-76
2022/05/17 06:08:40;;;;;;;16.20;7.20;;;;;;;15.62;45.01;100702.38;108440;1273;23681;-75
2022/05/17 06:11:09;;;;;;;12.70;6.70;;;;;;;15.71;44.95;100702.30;108623;1273;23037;-77
2022/05/17 06:13:39;;;;;;;7.50;5.80;;;;;;;15.85;45.12;100707.05;108368;1276;23767;-75
2022/05/17 06:16:17;;;;;;;8.80;5.70;;;;;;;15.97;44.59;100710.58;108408;1270;21981;-75
2022/05/17 06:18:47;;;;;;;10.50;6.10;;;;;;;16.06;44.64;100713.64;108743;1270;22861;-75
2022/05/17 06:21:19;;;;;;;13.90;5.40;;;;;;;16.24;44.83;100713.80;108721;1270;22535;-75
2022/05/17 06:23:48;;;;;;;10.90;5.30;;;;;;;16.41;44.32;100714.34;108419;1276;21988;-76
2022/05/17 06:26:20;;;;;;;13.00;7.00;;;;;;;16.50;44.15;100714.92;108422;1276;21984;-73
2022/05/17 06:28:50;;;;;;;9.90;6.20;;;;;;;16.64;44.15;100716.54;108418;1276;22055;-76
2022/05/17 06:31:19;;;;;;;11.10;6.00;;;;;;;16.74;43.97;100717.59;108695;1270;23680;-76
2022/05/17 06:33:48;;;;;;;12.30;6.20;;;;;;;16.79;43.61;100723.66;108801;1273;24460;-77
2022/05/17 06:36:24;;;;;;;15.00;6.70;;;;;;;16.83;43.59;100724.86;108773;1271;22038;-78
2022/05/17 06:39:15;;;;;;;9.00;5.00;;;;;;;16.88;43.76;100725.04;108655;1273;21984;-75
2022/05/17 06:41:47;;;;;;;8.60;5.20;;;;;;;16.91;43.42;100723.38;108763;1270;22006;-76
2022/05/17 06:44:19;;;;;;;13.10;6.00;;;;;;;16.82;43.24;100719.55;108945;1267;22975;-76
2022/05/17 06:46:50;;;;;;;8.10;5.10;;;;;;;16.83;43.66;100719.61;109030;1267;23616;-76
2022/05/17 06:49:23;;;;;;;25.40;6.20;;;;;;;16.87;43.58;100717.70;108878;1269;22819;-75
2022/05/17 06:51:53;;;;;;;8.50;5.20;;;;;;;16.90;43.71;100717.45;109061;1267;23078;-76
2022/05/17 06:54:24;;;;;;;10.00;4.70;;;;;;;16.98;43.89;100720.89;109089;1269;22029;-75
2022/05/17 06:56:53;;;;;;;8.30;4.70;;;;;;;17.06;43.82;100726.34;109112;1267;21982;-74
2022/05/17 06:59:22;;;;;;;8.10;4.00;;;;;;;17.04;43.16;100728.63;109045;1267;21998;-76
2022/05/17 07:01:55;;;;;;;10.00;4.20;;;;;;;17.01;43.26;100733.42;108899;1270;23153;-76
2022/05/17 07:04:25;;;;;;;7.60;4.30;;;;;;;17.03;43.22;100732.61;108875;1267;23099;-76
2022/05/17 07:06:56;;;;;;;11.70;4.50;;;;;;;17.02;43.09;100735.48;109034;1267;21985;-75
2022/05/17 07:09:28;;;;;;;9.60;4.20;;;;;;;16.98;42.80;100738.88;109045;1270;22568;-75
2022/05/17 07:14:51;;;;;;;11.30;3.90;;;;;;;17.10;43.45;100741.37;109160;1267;22282;-77
2022/05/17 07:17:22;;;;;;;6.40;4.10;;;;;;;17.17;42.93;100738.96;108898;1268;24398;-76
2022/05/17 07:19:51;;;;;;;8.90;4.40;;;;;;;17.23;42.86;100740.55;108784;1270;416208;-74
2022/05/17 07:22:22;;;;;;;7.50;4.40;;;;;;;17.28;42.75;100742.65;108590;1276;23103;-75
2022/05/17 07:24:51;;;;;;;7.50;3.60;;;;;;;17.33;42.32;100747.34;108651;1273;21992;-74
2022/05/17 07:27:20;;;;;;;7.20;3.90;;;;;;;17.26;41.61;100748.81;108440;1276;23072;-77
2022/05/17 07:29:54;;;;;;;7.20;3.60;;;;;;;17.21;41.99;100747.77;108475;1276;21993;-76
2022/05/17 07:32:27;;;;;;;7.40;4.60;;;;;;;17.26;42.26;100749.92;108594;1276;21997;-77
2022/05/17 07:34:59;;;;;;;8.70;4.00;;;;;;;17.34;42.32;100749.92;108607;1273;22005;-75
2022/05/17 07:37:38;;;;;;;9.10;4.30;;;;;;;17.42;42.09;100748.14;108460;1276;22977;-76
2022/05/17 07:40:12;;;;;;;5.90;4.20;;;;;;;17.45;41.78;100745.73;108650;1270;21978;-76
2022/05/17 07:42:44;;;;;;;7.80;3.70;;;;;;;17.45;41.55;100746.50;109045;1267;21987;-76
2022/05/17 07:45:16;;;;;;;6.10;3.00;;;;;;;17.45;41.48;100742.31;108923;1267;23673;-76
2022/05/17 07:47:47;;;;;;;10.20;3.40;;;;;;;17.45;41.27;100748.11;108896;1267;23149;-76
2022/05/17 07:50:17;;;;;;;4.60;3.40;;;;;;;17.40;40.91;100747.08;109132;1267;21995;-75
2022/05/17 07:52:48;;;;;;;;;;;;;;;17.32;40.94;100746.27;108689;1273;22059;-77
2022/05/17 07:55:19;;;;;;;8.60;3.20;;;;;;;17.29;41.60;100741.13;108750;1273;21985;-75
2022/05/17 07:57:49;;;;;;;7.50;2.80;;;;;;;17.48;41.90;100740.30;108856;1273;21989;-75
2022/05/17 08:00:19;;;;;;;5.10;2.90;;;;;;;17.73;41.48;100743.86;108673;1272;22536;-76
2022/05/17 08:02:53;;;;;;;7.10;3.30;;;;;;;17.88;40.73;100748.34;108709;1271;22178;-77
2022/05/17 08:05:33;;;;;;;8.50;3.20;;;;;;;17.90;40.01;100754.67;108720;1273;22828;-76
2022/05/17 08:08:07;;;;;;;8.40;3.60;;;;;;;17.87;40.03;100754.13;108967;1271;21982;-76
2022/05/17 08:10:44;;;;;;;5.90;3.00;;;;;;;17.86;40.14;100756.77;108741;1267;23811;-76
2022/05/17 08:13:23;;;;;;;8.20;3.20;;;;;;;17.85;39.96;100758.89;109205;1267;22001;-78
2022/05/17 08:15:57;;;;;;;9.00;3.50;;;;;;;17.85;39.98;100762.80;109099;1267;21989;-77
2022/05/17 08:18:26;;;;;;;5.70;3.20;;;;;;;17.92;40.07;100766.17;109176;1266;22591;-77
2022/05/17 08:20:55;;;;;;;9.20;3.20;;;;;;;17.94;39.68;100768.77;109175;1267;21993;-77
2022/05/17 08:23:29;;;;;;;11.40;3.00;;;;;;;17.90;39.51;100768.52;109148;1267;22054;-77
2022/05/17 08:28:45;;;;;;;11.40;3.50;;;;;;;18.06;39.71;100772.23;108764;1270;21987;-77
2022/05/17 08:31:17;;;;;;;9.80;3.40;;;;;;;18.13;39.19;100772.13;108501;1273;21996;-78
2022/05/17 08:33:49;;;;;;;9.10;3.40;;;;;;;18.23;39.51;100770.35;108723;1270;23051;-77
2022/05/17 08:36:19;;;;;;;12.90;3.10;;;;;;;18.36;39.44;100777.81;108478;1276;23691;-77
2022/05/17 08:38:50;;;;;;;5.60;2.90;;;;;;;18.42;38.97;100783.56;108453;1276;22021;-76
2022/05/17 08:41:51;;;;;;;8.70;2.50;;;;;;;18.51;39.39;100784.29;108618;1276;23692;-77
2022/05/17 08:44:48;;;;;;;9.40;2.70;;;;;;;18.69;39.13;100788.46;108447;1276;23105;-77
2022/05/17 08:47:49;;;;;;;8.80;2.80;;;;;;;18.76;38.51;100787.88;108353;1277;21956;-77
2022/05/17 08:50:38;;;;;;;6.60;2.90;;;;;;;18.70;38.11;100792.29;108468;1276;21979;-77
2022/05/17 08:53:16;;;;;;;7.30;2.50;;;;;;;18.54;38.24;100793.71;108362;1276;22787;-77
2022/05/17 08:55:50;;;;;;;4.80;3.10;;;;;;;18.44;38.55;100802.50;108363;1276;22786;-77
2022/05/17 08:58:29;;;;;;;5.50;2.70;;;;;;;18.42;38.69;100808.96;108397;1277;22056;-76
2022/05/17 09:01:13;;;;;;;7.10;3.00;;;;;;;18.39;38.50;100807.70;108458;1276;21979;-77
2022/05/17 09:03:59;;;;;;;9.30;3.20;;;;;;;18.35;38.50;100809.46;108385;1277;21988;-76
2022/05/17 09:06:38;;;;;;;5.70;2.90;;;;;;;18.31;38.70;100805.72;108812;1271;22479;-77
2022/05/17 09:09:28;;;;;;;5.90;3.30;;;;;;;18.33;38.94;100811.77;108872;1271;23112;-77
2022/05/17 09:12:08;;;;;;;6.90;3.20;;;;;;;18.42;39.08;100814.02;108440;1274;22009;-78
2022/05/17 09:14:44;;;;;;;5.10;2.80;;;;;;;18.45;38.55;100817.02;108695;1273;21995;-77
2022/05/17 09:17:21;;;;;;;8.10;3.10;;;;;;;18.43;38.14;100816.86;108660;1276;21984;-76
2022/05/17 09:19:53;;;;;;;5.60;2.60;;;;;;;18.38;38.20;100821.32;108504;1272;21994;-76
2022/05/17 09:22:23;;;;;;;6.20;2.40;;;;;;;18.35;38.25;100821.31;108790;1273;22029;-77
2022/05/17 09:25:02;;;;;;;13.00;2.70;;;;;;;18.37;38.25;100821.93;108465;1276;22002;-77
2022/05/17 09:27:38;;;;;;;5.40;2.60;;;;;;;18.36;38.16;100819.05;108482;1276;22815;-76
2022/05/17 09:30:43;;;;;;;8.20;2.20;;;;;;;18.32;38.21;100820.53;108579;1273;22017;-77
2022/05/17 09:33:20;;;;;;;16.10;3.30;;;;;;;18.32;38.35;100824.86;108713;1270;22054;-75
2022/05/17 09:36:02;;;;;;;4.50;2.40;;;;;;;18.38;38.38;100825.70;108714;1273;21989;-77
2022/05/17 09:38:35;;;;;;;8.80;2.70;;;;;;;18.44;38.08;100824.76;108751;1273;22042;-76
2022/05/17 09:41:12;;;;;;;5.30;2.60;;;;;;;18.47;38.00;100819.83;108583;1273;22217;-77
2022/05/17 09:44:04;;;;;;;5.00;2.70;;;;;;;18.50;38.00;100820.30;109180;1267;22075;-77
2022/05/17 09:46:50;;;;;;;5.60;3.50;;;;;;;18.42;37.78;100824.42;109241;1267;22061;-76
2022/05/17 09:52:34;;;;;;;13.00;2.50;;;;;;;18.45;38.49;100821.95;109024;1267;22225;-77
2022/05/17 09:55:21;;;;;;;7.00;2.30;;;;;;;18.46;38.33;100822.33;109192;1267;22084;-76
2022/05/17 09:58:08;;;;;;;7.40;3.10;;;;;;;18.51;38.55;100823.52;109088;1270;22854;-77
2022/05/17 10:00:43;;;;;;;5.80;2.20;;;;;;;18.58;38.14;100822.23;109196;1267;22488;-78
2022/05/17 10:03:12;;;;;;;12.10;3.00;;;;;;;18.63;38.03;100820.45;109229;1265;22099;-77
2022/05/17 10:05:55;;;;;;;4.20;2.90;;;;;;;18.64;38.04;100819.61;109222;1267;23796;-77
2022/05/17 10:08:30;;;;;;;3.50;2.10;;;;;;;18.68;38.21;100822.86;109271;1266;22087;-77
2022/05/17 10:11:24;;;;;;;6.70;2.50;;;;;;;18.65;37.71;100822.71;109179;1267;21953;-78
2022/05/17 10:14:33;;;;;;;5.50;2.70;;;;;;;18.61;37.83;100824.11;109167;1267;22517;-77
2022/05/17 10:17:37;;;;;;;7.40;2.70;;;;;;;18.69;38.10;100820.27;109256;1268;21989;-77
2022/05/17 10:20:16;;;;;;;4.20;1.80;;;;;;;18.72;37.53;100822.99;109231;1267;22232;-77
2022/05/17 10:22:59;;;;;;;9.80;2.40;;;;;;;18.70;37.20;100823.52;108976;1270;21986;-77
2022/05/17 10:25:46;;;;;;;7.80;2.30;;;;;;;18.72;37.18;100828.31;109176;1270;21999;-77
2022/05/17 10:28:47;;;;;;;7.20;2.50;;;;;;;18.75;36.94;100824.61;108875;1271;23715;-79
2022/05/17 10:31:46;;;;;;;13.30;2.50;;;;;;;18.83;36.95;100829.03;109015;1270;24315;-80
2022/05/17 10:34:50;;;;;;;3.60;1.70;;;;;;;18.87;36.59;100830.02;109017;1270;23613;-77
2022/05/17 10:37:30;;;;;;;3.80;2.00;;;;;;;18.79;36.41;100827.96;108654;1274;23616;-77
2022/05/17 10:40:13;;;;;;;5.60;1.70;;;;;;;18.76;36.42;100827.52;108514;1273;22107;-76
2022/05/17 10:42:45;;;;;;;9.00;2.50;;;;;;;18.71;36.20;100824.68;108563;1273;21987;-77
2022/05/17 10:45:32;;;;;;;5.50;1.80;;;;;;;18.70;36.11;100827.27;108758;1273;22035;-82
2022/05/17 10:49:09;;;;;;;3.10;2.00;;;;;;;18.69;36.21;100825.37;108656;1273;22022;-82
2022/05/17 10:52:13;;;;;;;3.50;2.10;;;;;;;18.64;35.80;100827.85;108657;1279;22034;-78
2022/05/17 10:54:56;;;;;;;4.80;1.80;;;;;;;18.59;35.77;100823.05;108492;1273;22012;-80
2022/05/17 10:57:58;;;;;;;13.10;3.30;;;;;;;18.60;36.07;100824.53;108878;1273;22133;-80
2022/05/17 11:01:11;;;;;;;7.40;2.30;;;;;;;18.69;36.27;100826.95;108931;1274;22395;-80
2022/05/17 11:04:13;;;;;;;6.90;2.40;;;;;;;18.76;35.87;100824.60;109010;1273;21986;-80
2022/05/17 11:07:12;;;;;;;5.20;1.90;;;;;;;18.82;35.41;100823.43;109051;1273;21992;-80
2022/05/17 11:10:16;;;;;;;4.20;1.70;;;;;;;18.86;35.12;100821.70;109337;1266;22406;-81
2022/05/17 11:12:54;;;;;;;5.10;1.60;;;;;;;18.93;35.26;100822.70;108726;1270;23017;-77
2022/05/17 11:15:35;;;;;;;5.80;1.50;;;;;;;18.93;34.84;100818.75;109016;1271;22550;-79
2022/05/17 11:18:37;;;;;;;4.20;1.70;;;;;;;18.95;34.69;100820.76;109053;1270;21994;-82
2022/05/17 11:21:36;;;;;;;;;;;;;;;18.99;34.72;100815.39;108769;1270;22749;-77
2022/05/17 11:24:53;;;;;;;5.70;1.30;;;;;;;19.01;34.87;100813.44;108944;1270;21994;-78
2022/05/17 11:27:45;;;;;;;4.80;2.80;;;;;;;19.15;34.82;100812.52;108721;1273;21996;-78
2022/05/17 11:30:20;;;;;;;;;;;;;;;19.27;34.46;100812.96;108731;1273;23705;-78
2022/05/17 11:33:32;;;;;;;3.50;1.30;;;;;;;19.26;34.34;100808.55;108909;1271;23111;-77
2022/05/17 11:36:31;;;;;;;3.60;1.30;;;;;;;19.32;34.63;100809.39;108855;1272;23739;-78
2022/05/17 11:39:01;;;;;;;5.20;2.30;;;;;;;19.40;34.25;100808.85;108753;1273;22055;-77
2022/05/17 11:41:34;;;;;;;12.50;3.90;;;;;;;19.52;34.27;100812.11;108741;1273;21993;-78
2022/05/17 11:44:08;;;;;;;5.30;2.30;;;;;;;19.64;33.68;100813.64;108830;1270;21996;-77
2022/05/17 11:47:00;;;;;;;9.20;4.90;;;;;;;19.68;33.17;100815.80;108980;1270;23749;-81
2022/05/17 11:49:41;;;;;;;6.40;2.30;;;;;;;19.68;32.70;100809.34;108552;1276;21988;-79
2022/05/17 11:52:24;;;;;;;9.20;1.80;;;;;;;19.69;32.64;100809.16;108694;1276;23669;-79
2022/05/17 11:55:02;;;;;;;6.00;1.60;;;;;;;19.73;32.64;100811.58;108569;1276;23293;-81
2022/05/17 11:57:37;;;;;;;4.70;1.10;;;;;;;19.79;32.54;100810.59;108856;1276;22039;-78
2022/05/17 12:00:46;;;;;;;12.90;2.20;;;;;;;19.83;32.07;100815.61;108480;1278;22000;-80
2022/05/17 12:03:40;;;;;;;3.20;1.20;;;;;;;19.86;31.90;100821.36;107943;1286;23887;-77
2022/05/17 12:06:38;;;;;;;4.70;1.30;;;;;;;19.89;31.70;100815.16;107750;1288;23641;-78
2022/05/17 12:09:27;;;;;;;2.30;1.00;;;;;;;19.97;31.50;100819.76;107633;1288;23647;-77